Boone County Airport
KHRO : now visible

Airfield :











YOU CAN JOIN US ON...

 
LOGIN :

Register | Disclaimer

   EN    FR    IT 

 









Legend :    VFR   Marginal VFR   IFR   Intensive IFR   Very Intensive IFR
Visi :
Ceiling :
>= 8 km
>= 3000ft
5 to 8 km
1000 to 3000 ft
1500m to 5 km
500 to 1000 ft
800 to 1500m
200 to 500 ft
< 800m
< 200 ft
Symbols :   Thunderstorms  Fog  Heavy snow  Heavy precipitations  Wind > 20 kt






- Airport Elevation : 1365 ft
- IATA code : HRO


KHRO - Boone County

CURRENT METAR :
  • 130453Z AUTO 00000KT 10SM CLR 22/21 A3004 RMK AO2 SLP158 T02170211

EXPIRED METARs :
  • 130353Z AUTO 00000KT 10SM CLR 23/22 A3004 RMK AO2 SLP158 T02280217
  • 130253Z AUTO 00000KT 10SM CLR 23/22 A3003 RMK AO2 SLP155 T02330217 53016

TAF KHRO
Valid from the 13 at 06:00 until the 14 at 06:00 UTC


130529Z 1306/1406 VRB02KT P6SM FEW030
FM130800 VRB03KT 4SM BR FEW005 SCT250
TEMPO 1309/1313 2SM BR BKN005
FM131400 13007KT P6SM BKN030
FM131800 11008KT P6SM BKN040
FM140000 VRB03KT P6SM SCT100 BKN200
KZME FIR / North America



MET'MAP, your aeronautical weather chart ! - Copyright ORBIFLY December 2007 - Disclaimer

ORBIFLY MET'MAP TEAM :

Programming & Development : Alexandra Zaïnal
Concept & original design : Baudouin d'Aumeries
Assistance for programming : Marc-Olivier Méhu
Technical & hardware support : Manuel Goepfert

Contact : metmap@orbifly.com




SOURCES & CREDITS :

   NOAA       Earth
Advisory